createdAt,value
2019-01-26T00:00:30.092Z,1.70
2019-01-26T00:02:58.542Z,1.70
2019-01-26T00:05:26.944Z,1.80
2019-01-26T00:07:55.366Z,1.80
2019-01-26T00:10:23.772Z,1.90
2019-01-26T00:12:52.173Z,1.80
2019-01-26T00:15:20.583Z,1.80
2019-01-26T00:17:48.977Z,1.80
2019-01-26T00:20:17.387Z,1.80
2019-01-26T00:22:45.867Z,1.80
2019-01-26T00:25:14.303Z,1.70
2019-01-26T00:27:42.705Z,1.70
2019-01-26T00:30:16.024Z,1.60
2019-01-26T00:32:44.429Z,1.60
2019-01-26T00:35:12.917Z,1.70
2019-01-26T00:37:41.312Z,1.70
2019-01-26T00:40:11.760Z,1.70
2019-01-26T00:42:40.167Z,1.80
2019-01-26T00:45:10.915Z,1.80
2019-01-26T00:47:39.337Z,1.80
2019-01-26T00:50:10.065Z,1.80
2019-01-26T00:52:38.489Z,1.80
2019-01-26T00:55:08.909Z,1.80
2019-01-26T00:57:37.307Z,1.90
2019-01-26T01:00:12.059Z,1.90
2019-01-26T01:02:40.474Z,2.00
2019-01-26T01:05:09.629Z,2.00
2019-01-26T01:07:38.351Z,2.00
2019-01-26T01:10:09.916Z,2.10
2019-01-26T01:12:38.341Z,2.00
2019-01-26T01:15:10.180Z,2.00
2019-01-26T01:17:38.608Z,2.10
2019-01-26T01:20:09.458Z,2.00
2019-01-26T01:22:37.928Z,2.00
2019-01-26T01:25:08.764Z,2.00
2019-01-26T01:27:37.176Z,2.10
2019-01-26T01:30:08.672Z,2.10
2019-01-26T01:32:37.080Z,2.00
2019-01-26T01:35:05.915Z,2.00
2019-01-26T01:37:34.332Z,2.00
2019-01-26T01:40:02.743Z,2.00
2019-01-26T01:42:31.161Z,1.90
2019-01-26T01:44:59.572Z,2.00
2019-01-26T01:47:28.347Z,2.00
2019-01-26T01:49:57.184Z,2.10
2019-01-26T01:52:25.591Z,2.10
2019-01-26T01:54:54.021Z,2.10
2019-01-26T01:57:22.427Z,2.10
2019-01-26T01:59:50.827Z,2.10
2019-01-26T02:02:19.232Z,2.10
2019-01-26T02:04:47.630Z,2.10
2019-01-26T02:07:16.058Z,2.10
2019-01-26T02:09:44.451Z,2.10
2019-01-26T02:12:12.885Z,2.10
2019-01-26T02:14:41.279Z,2.20
2019-01-26T02:17:09.711Z,2.20
2019-01-26T02:19:38.124Z,2.20
2019-01-26T02:22:06.532Z,2.20
2019-01-26T02:24:34.936Z,2.20
2019-01-26T02:27:03.419Z,2.20
2019-01-26T02:29:31.815Z,2.30
2019-01-26T02:32:00.256Z,2.30
2019-01-26T02:34:28.664Z,2.30
2019-01-26T02:36:57.072Z,2.40
2019-01-26T02:39:25.469Z,2.40
2019-01-26T02:41:53.880Z,2.40
2019-01-26T02:44:22.280Z,2.50
2019-01-26T02:46:57.802Z,2.60
2019-01-26T02:49:20.891Z,2.60
2019-01-26T02:51:49.316Z,2.60
2019-01-26T02:54:17.731Z,2.60
2019-01-26T02:56:46.142Z,2.60
2019-01-26T02:59:14.553Z,2.70
2019-01-26T03:01:42.999Z,2.70
2019-01-26T03:04:11.479Z,2.70
2019-01-26T03:06:39.887Z,2.80
2019-01-26T03:09:09.163Z,2.80
2019-01-26T03:11:37.568Z,2.80
2019-01-26T03:14:06.005Z,2.80
2019-01-26T03:16:34.414Z,2.80
2019-01-26T03:19:02.829Z,2.80
2019-01-26T03:21:31.236Z,2.90
2019-01-26T03:23:59.644Z,2.90
2019-01-26T03:26:28.399Z,2.90
2019-01-26T03:28:56.815Z,2.90
2019-01-26T03:31:25.213Z,2.80
2019-01-26T03:33:53.629Z,2.90
2019-01-26T03:36:22.024Z,2.90
2019-01-26T03:38:50.428Z,2.90
2019-01-26T03:41:18.855Z,2.90
2019-01-26T03:43:47.253Z,2.90
2019-01-26T03:46:15.674Z,3.00
2019-01-26T03:48:44.108Z,3.00
2019-01-26T03:51:12.535Z,3.10
2019-01-26T03:53:41.268Z,3.10
2019-01-26T03:56:09.691Z,3.10
2019-01-26T03:58:38.210Z,3.10
2019-01-26T04:01:06.599Z,3.10
2019-01-26T04:03:35.000Z,3.20
2019-01-26T04:06:03.482Z,3.10
2019-01-26T04:08:31.903Z,3.20
2019-01-26T04:11:00.313Z,3.20
2019-01-26T04:13:28.708Z,3.30
2019-01-26T04:15:57.136Z,3.30
2019-01-26T04:18:25.529Z,3.40
2019-01-26T04:20:53.940Z,3.40
2019-01-26T04:23:22.345Z,3.40
2019-01-26T04:25:50.758Z,3.40
2019-01-26T04:28:19.149Z,3.40
2019-01-26T04:30:47.579Z,3.50
2019-01-26T04:33:16.000Z,3.60
2019-01-26T04:35:44.408Z,3.60
2019-01-26T04:38:12.800Z,3.60
2019-01-26T04:40:41.212Z,3.70
2019-01-26T04:43:09.637Z,3.70
2019-01-26T04:45:38.043Z,3.80
2019-01-26T04:48:06.449Z,3.80
2019-01-26T04:50:34.867Z,3.80
2019-01-26T04:53:03.272Z,3.90
2019-01-26T04:55:31.711Z,3.90
2019-01-26T04:58:00.116Z,3.90
2019-01-26T05:00:28.691Z,3.90
2019-01-26T05:02:57.168Z,3.90
2019-01-26T05:05:25.569Z,3.90
2019-01-26T05:07:53.973Z,3.90
2019-01-26T05:10:22.472Z,3.90
2019-01-26T05:12:50.942Z,3.90
2019-01-26T05:15:19.882Z,3.90
2019-01-26T05:17:48.374Z,3.90
2019-01-26T05:20:19.580Z,3.90
2019-01-26T05:22:48.127Z,3.90
2019-01-26T05:25:16.576Z,3.90
2019-01-26T05:27:45.061Z,3.90
2019-01-26T05:30:16.432Z,3.90
2019-01-26T05:32:44.832Z,3.90
2019-01-26T05:35:13.401Z,3.80
2019-01-26T05:37:41.829Z,3.80
2019-01-26T05:40:12.860Z,3.80
2019-01-26T05:42:41.270Z,3.80
2019-01-26T05:45:12.388Z,3.80
2019-01-26T05:47:48.143Z,3.80
2019-01-26T05:50:14.358Z,3.80
2019-01-26T05:52:42.759Z,3.90
2019-01-26T05:55:11.456Z,3.90
2019-01-26T05:57:39.863Z,3.90
2019-01-26T06:00:17.776Z,3.90
2019-01-26T06:02:46.234Z,3.90
2019-01-26T06:05:14.747Z,3.90
2019-01-26T06:07:43.155Z,3.90
2019-01-26T06:10:11.919Z,3.90
2019-01-26T06:12:40.363Z,3.90
2019-01-26T06:15:11.233Z,3.90
2019-01-26T06:17:39.652Z,3.90
2019-01-26T06:20:11.405Z,3.90
2019-01-26T06:22:39.839Z,3.90
2019-01-26T06:25:11.352Z,3.90
2019-01-26T06:27:39.760Z,4.00
2019-01-26T06:30:17.556Z,4.00
2019-01-26T06:32:45.982Z,3.90
2019-01-26T06:35:14.459Z,3.90
2019-01-26T06:37:43.179Z,4.00
2019-01-26T06:40:13.920Z,4.00
2019-01-26T06:42:42.319Z,4.00
2019-01-26T06:45:12.585Z,4.10
2019-01-26T06:47:41.276Z,4.10
2019-01-26T06:50:15.015Z,4.10
2019-01-26T06:52:43.413Z,4.10
2019-01-26T06:55:11.844Z,4.20
2019-01-26T06:57:40.237Z,4.20
2019-01-26T07:00:14.871Z,4.20
2019-01-26T07:02:43.309Z,4.20
2019-01-26T07:05:16.599Z,4.20
2019-01-26T07:07:45.015Z,4.30
2019-01-26T07:10:13.895Z,4.30
2019-01-26T07:12:42.299Z,4.20
2019-01-26T07:15:12.236Z,4.20
2019-01-26T07:17:40.632Z,4.20
2019-01-26T07:20:14.996Z,4.20
2019-01-26T07:22:43.384Z,4.30
2019-01-26T07:25:11.955Z,4.30
2019-01-26T07:27:40.375Z,4.30
2019-01-26T07:30:20.915Z,4.20
2019-01-26T07:32:49.491Z,4.20
2019-01-26T07:35:17.911Z,4.20
2019-01-26T07:37:46.321Z,4.20
2019-01-26T07:40:17.495Z,4.20
2019-01-26T07:42:45.896Z,4.30
2019-01-26T07:45:14.870Z,4.20
2019-01-26T07:47:43.300Z,4.20
2019-01-26T07:50:14.933Z,4.30
2019-01-26T07:52:43.336Z,4.30
2019-01-26T07:55:11.976Z,4.30
2019-01-26T07:57:40.719Z,4.30
2019-01-26T08:00:12.671Z,4.30
2019-01-26T08:02:41.367Z,4.30
2019-01-26T08:05:11.308Z,4.40
2019-01-26T08:07:39.722Z,4.40
2019-01-26T08:10:13.508Z,4.50
2019-01-26T08:12:42.154Z,4.50
2019-01-26T08:15:13.619Z,4.50
2019-01-26T08:17:42.040Z,4.50
2019-01-26T08:20:13.692Z,4.50
2019-01-26T08:22:42.117Z,4.50
2019-01-26T08:25:10.584Z,4.60
2019-01-26T08:27:39.077Z,4.60
2019-01-26T08:30:13.174Z,4.60
2019-01-26T08:32:41.608Z,4.80
2019-01-26T08:35:10.073Z,4.80
2019-01-26T08:37:38.480Z,4.90
2019-01-26T08:40:12.960Z,5.00
2019-01-26T08:42:41.367Z,5.10
2019-01-26T08:45:11.908Z,5.10
2019-01-26T08:47:40.497Z,5.10
2019-01-26T08:50:11.982Z,5.10
2019-01-26T08:52:40.464Z,5.10
2019-01-26T08:55:10.501Z,5.20
2019-01-26T08:57:38.932Z,5.20
2019-01-26T09:00:10.749Z,5.10
2019-01-26T09:02:55.860Z,5.20
2019-01-26T09:05:26.022Z,5.10
2019-01-26T09:07:54.435Z,5.20
2019-01-26T09:10:22.843Z,5.30
2019-01-26T09:12:51.287Z,5.30
2019-01-26T09:15:19.685Z,5.40
2019-01-26T09:17:48.097Z,5.60
2019-01-26T09:20:17.563Z,5.80
2019-01-26T09:22:45.960Z,5.90
2019-01-26T09:25:14.832Z,6.00
2019-01-26T09:27:43.532Z,6.00
2019-01-26T09:30:17.111Z,6.10
2019-01-26T09:32:45.522Z,6.20
2019-01-26T09:35:14.067Z,6.40
2019-01-26T09:37:42.919Z,6.50
2019-01-26T09:40:17.044Z,6.60
2019-01-26T09:42:45.456Z,6.70
2019-01-26T09:45:16.746Z,6.70
2019-01-26T09:47:45.416Z,6.70
2019-01-26T09:50:14.684Z,6.60
2019-01-26T09:52:44.033Z,6.60
2019-01-26T09:55:20.032Z,6.50
2019-01-26T09:57:48.593Z,6.40
2019-01-26T10:00:21.978Z,6.40
2019-01-26T10:02:50.375Z,6.50
2019-01-26T10:05:19.216Z,6.50
2019-01-26T10:07:48.925Z,6.50
2019-01-26T10:10:18.268Z,6.60
2019-01-26T10:12:46.668Z,6.60
2019-01-26T10:15:30.019Z,6.60
2019-01-26T10:17:58.411Z,6.70
2019-01-26T10:20:33.499Z,6.60
2019-01-26T10:23:02.003Z,6.50
2019-01-26T10:25:30.827Z,6.50
2019-01-26T10:27:59.255Z,6.50
2019-01-26T10:30:37.807Z,6.60
2019-01-26T10:33:06.291Z,6.50
2019-01-26T10:35:45.091Z,6.50
2019-01-26T10:38:13.543Z,6.60
2019-01-26T10:40:49.876Z,6.70
2019-01-26T10:43:20.208Z,6.80
2019-01-26T10:45:48.614Z,7.00
2019-01-26T10:48:17.017Z,7.20
2019-01-26T10:50:45.436Z,7.20
2019-01-26T10:53:13.849Z,7.20
2019-01-26T10:55:42.302Z,7.30
2019-01-26T10:58:10.759Z,7.20
2019-01-26T11:00:39.271Z,7.30
2019-01-26T11:03:08.038Z,7.50
2019-01-26T11:05:36.747Z,7.40
2019-01-26T11:08:05.408Z,7.30
2019-01-26T11:10:34.020Z,7.20
2019-01-26T11:13:02.423Z,7.20
2019-01-26T11:15:30.818Z,7.20
2019-01-26T11:17:59.528Z,7.30
2019-01-26T11:20:28.031Z,7.50
2019-01-26T11:22:56.434Z,7.40
2019-01-26T11:25:24.866Z,7.30
2019-01-26T11:27:53.319Z,7.20
2019-01-26T11:30:23.372Z,7.10
2019-01-26T11:32:51.803Z,7.10
2019-01-26T11:35:22.454Z,7.20
2019-01-26T11:37:50.848Z,7.40
2019-01-26T11:40:23.120Z,7.40
2019-01-26T11:42:52.100Z,7.50
2019-01-26T11:45:31.648Z,7.60
2019-01-26T11:48:01.702Z,7.80
2019-01-26T11:50:35.015Z,7.90
2019-01-26T11:53:04.184Z,7.90
2019-01-26T11:55:34.732Z,7.90
2019-01-26T11:58:03.147Z,8.00
2019-01-26T12:00:48.088Z,8.00
2019-01-26T12:03:27.308Z,8.10
2019-01-26T12:06:00.024Z,8.30
2019-01-26T12:08:28.476Z,8.30
2019-01-26T12:10:56.883Z,8.40
2019-01-26T12:13:25.285Z,8.30
2019-01-26T12:15:53.709Z,8.30
2019-01-26T12:18:22.103Z,8.10
2019-01-26T12:20:50.511Z,8.00
2019-01-26T12:23:18.931Z,7.90
2019-01-26T12:25:47.354Z,7.80
2019-01-26T12:28:15.764Z,7.60
2019-01-26T12:30:44.169Z,7.50
2019-01-26T12:33:12.585Z,7.50
2019-01-26T12:35:40.983Z,7.50
2019-01-26T12:38:09.551Z,7.50
2019-01-26T12:40:37.987Z,7.50
2019-01-26T12:43:06.479Z,7.40
2019-01-26T12:45:34.910Z,7.50
2019-01-26T12:48:03.904Z,7.60
2019-01-26T12:50:32.307Z,7.70
2019-01-26T12:53:00.721Z,7.90
2019-01-26T12:55:29.121Z,7.90
2019-01-26T12:57:57.525Z,7.80
2019-01-26T13:00:26.859Z,7.90
2019-01-26T13:02:55.354Z,7.90
2019-01-26T13:05:23.953Z,7.90
2019-01-26T13:07:52.365Z,7.90
2019-01-26T13:10:24.177Z,8.00
2019-01-26T13:12:52.656Z,7.90
2019-01-26T13:15:21.171Z,8.00
2019-01-26T13:17:49.588Z,8.10
2019-01-26T13:20:18.770Z,8.30
2019-01-26T13:22:47.156Z,8.20
2019-01-26T13:25:17.895Z,8.20
2019-01-26T13:27:46.404Z,8.20
2019-01-26T13:30:17.616Z,8.20
2019-01-26T13:32:46.671Z,8.40
2019-01-26T13:35:15.959Z,8.50
2019-01-26T13:37:44.378Z,8.30
2019-01-26T13:40:15.932Z,8.20
2019-01-26T13:42:45.957Z,8.10
2019-01-26T13:45:16.430Z,8.20
2019-01-26T13:47:44.879Z,8.20
2019-01-26T13:50:13.560Z,8.30
2019-01-26T13:52:41.984Z,8.30
2019-01-26T13:55:13.699Z,8.30
2019-01-26T13:57:42.173Z,8.20
2019-01-26T14:00:22.729Z,8.10
2019-01-26T14:02:51.213Z,8.10
2019-01-26T14:05:19.641Z,8.10
2019-01-26T14:07:50.007Z,8.10
2019-01-26T14:10:20.764Z,8.10
2019-01-26T14:12:49.614Z,8.10
2019-01-26T14:15:19.876Z,8.10
2019-01-26T14:17:48.644Z,8.20
2019-01-26T14:20:24.981Z,8.10
2019-01-26T14:22:53.590Z,7.90
2019-01-26T14:25:21.983Z,7.90
2019-01-26T14:27:50.528Z,7.90
2019-01-26T14:30:34.453Z,7.90
2019-01-26T14:33:02.870Z,7.80
2019-01-26T14:35:31.278Z,7.90
2019-01-26T14:37:59.697Z,7.90
2019-01-26T14:40:28.173Z,7.90
2019-01-26T14:42:56.608Z,7.80
2019-01-26T14:45:25.032Z,7.60
2019-01-26T14:47:53.463Z,7.50
2019-01-26T14:50:21.940Z,7.60
2019-01-26T14:52:50.353Z,7.50
2019-01-26T14:55:24.390Z,7.50
2019-01-26T14:57:52.792Z,7.60
2019-01-26T15:00:26.621Z,7.60
2019-01-26T15:02:55.364Z,7.60
2019-01-26T15:05:23.947Z,7.60
2019-01-26T15:07:52.349Z,7.60
2019-01-26T15:10:20.763Z,7.70
2019-01-26T15:12:49.163Z,7.70
2019-01-26T15:15:21.354Z,7.60
2019-01-26T15:17:49.768Z,7.50
2019-01-26T15:20:27.061Z,7.50
2019-01-26T15:22:55.525Z,7.40
2019-01-26T15:25:24.207Z,7.30
2019-01-26T15:27:52.604Z,7.20
2019-01-26T15:30:24.366Z,7.10
2019-01-26T15:32:52.842Z,7.10
2019-01-26T15:35:21.265Z,7.10
2019-01-26T15:37:49.677Z,7.20
2019-01-26T15:40:18.120Z,7.30
2019-01-26T15:42:46.562Z,7.30
2019-01-26T15:45:18.284Z,7.30
2019-01-26T15:47:46.697Z,7.30
2019-01-26T15:50:16.353Z,7.30
2019-01-26T15:52:45.354Z,7.20
2019-01-26T15:55:16.575Z,7.20
2019-01-26T15:57:44.980Z,7.10
2019-01-26T16:00:16.477Z,7.00
2019-01-26T16:02:44.919Z,7.10
2019-01-26T16:05:13.324Z,7.10
2019-01-26T16:07:41.738Z,7.10
2019-01-26T16:10:15.880Z,7.10
2019-01-26T16:12:46.306Z,7.10
2019-01-26T16:15:17.291Z,7.10
2019-01-26T16:17:45.703Z,7.10
2019-01-26T16:20:20.383Z,7.10
2019-01-26T16:22:46.759Z,7.10
2019-01-26T16:25:15.912Z,7.00
2019-01-26T16:27:44.323Z,7.00
2019-01-26T16:30:26.839Z,7.00
2019-01-26T16:32:55.282Z,7.00
2019-01-26T16:35:23.748Z,7.00
2019-01-26T16:37:52.190Z,6.90
2019-01-26T16:40:26.568Z,6.80
2019-01-26T16:42:55.040Z,6.80
2019-01-26T16:45:25.797Z,6.90
2019-01-26T16:47:54.221Z,7.00
2019-01-26T16:50:27.864Z,7.00
2019-01-26T16:52:54.897Z,7.10
2019-01-26T16:55:23.376Z,7.20
2019-01-26T16:57:52.127Z,7.30
2019-01-26T17:00:29.286Z,7.30
2019-01-26T17:02:58.103Z,7.40
2019-01-26T17:05:26.632Z,7.40
2019-01-26T17:07:55.124Z,7.40
2019-01-26T17:10:23.866Z,7.30
2019-01-26T17:12:52.279Z,7.30
2019-01-26T17:15:20.741Z,7.20
2019-01-26T17:17:49.172Z,7.20
2019-01-26T17:20:35.320Z,7.20
2019-01-26T17:23:03.962Z,7.20
2019-01-26T17:25:32.355Z,7.10
2019-01-26T17:28:00.774Z,7.10
2019-01-26T17:30:36.848Z,7.10
2019-01-26T17:33:07.488Z,7.10
2019-01-26T17:35:36.159Z,7.00
2019-01-26T17:38:05.403Z,7.00
2019-01-26T17:40:33.826Z,7.00
2019-01-26T17:43:02.302Z,7.00
2019-01-26T17:45:30.713Z,7.00
2019-01-26T17:47:59.154Z,7.00
2019-01-26T17:50:28.678Z,7.00
2019-01-26T17:52:57.120Z,7.00
2019-01-26T17:55:25.538Z,7.00
2019-01-26T17:57:53.943Z,7.00
2019-01-26T18:00:29.364Z,7.00
2019-01-26T18:02:57.769Z,7.00
2019-01-26T18:06:24.834Z,7.00
2019-01-26T18:08:53.420Z,7.00
2019-01-26T18:11:21.842Z,7.00
2019-01-26T18:13:50.307Z,6.90
2019-01-26T18:16:18.716Z,6.90
2019-01-26T18:18:47.153Z,6.90
2019-01-26T18:21:15.560Z,6.90
2019-01-26T18:23:44.246Z,6.90
2019-01-26T18:26:12.648Z,6.90
2019-01-26T18:28:41.072Z,6.90
2019-01-26T18:31:09.495Z,7.00
2019-01-26T18:33:37.985Z,6.90
2019-01-26T18:36:06.591Z,6.90
2019-01-26T18:38:35.036Z,6.90
2019-01-26T18:41:03.452Z,6.90
2019-01-26T18:43:31.908Z,6.90
2019-01-26T18:46:00.330Z,6.90
2019-01-26T18:48:28.735Z,6.90
2019-01-26T18:50:57.146Z,6.90
2019-01-26T18:53:25.567Z,6.90
2019-01-26T18:55:53.983Z,6.90
2019-01-26T18:58:22.415Z,6.90
2019-01-26T19:00:50.857Z,6.90
2019-01-26T19:03:24.918Z,6.80
2019-01-26T19:05:55.877Z,6.90
2019-01-26T19:08:24.438Z,6.90
2019-01-26T19:10:53.133Z,6.80
2019-01-26T19:13:23.465Z,6.80
2019-01-26T19:15:51.901Z,6.80
2019-01-26T19:18:20.376Z,6.80
2019-01-26T19:20:48.792Z,6.80
2019-01-26T19:23:17.194Z,6.70
2019-01-26T19:25:45.601Z,6.80
2019-01-26T19:28:13.999Z,6.80
2019-01-26T19:30:42.601Z,6.80
2019-01-26T19:33:10.993Z,6.90
2019-01-26T19:35:39.400Z,6.90
2019-01-26T19:38:07.816Z,7.00
2019-01-26T19:40:36.243Z,6.90
2019-01-26T19:43:04.830Z,6.90
2019-01-26T19:45:33.252Z,6.90
2019-01-26T19:48:01.640Z,6.90
2019-01-26T19:50:30.052Z,6.90
2019-01-26T19:52:58.492Z,6.80
2019-01-26T19:55:26.932Z,6.80
2019-01-26T19:57:55.369Z,6.80
2019-01-26T20:00:23.772Z,6.80
2019-01-26T20:02:52.172Z,6.80
2019-01-26T20:05:25.040Z,6.80
2019-01-26T20:07:53.442Z,6.70
2019-01-26T20:10:22.287Z,6.60
2019-01-26T20:12:50.792Z,6.50
2019-01-26T20:15:21.803Z,6.50
2019-01-26T20:17:50.665Z,6.50
2019-01-26T20:20:31.203Z,6.50
2019-01-26T20:23:00.055Z,6.50
2019-01-26T20:25:28.453Z,6.50
2019-01-26T20:27:56.899Z,6.50
2019-01-26T20:30:28.550Z,6.50
2019-01-26T20:32:57.362Z,6.60
2019-01-26T20:35:25.764Z,6.50
2019-01-26T20:37:54.600Z,6.50
2019-01-26T20:40:23.949Z,6.50
2019-01-26T20:42:52.356Z,6.60
2019-01-26T20:45:24.326Z,6.60
2019-01-26T20:47:52.786Z,6.70
2019-01-26T20:50:21.484Z,6.70
2019-01-26T20:52:49.895Z,7.40
2019-01-26T20:55:18.296Z,6.70
2019-01-26T20:57:46.705Z,6.70
2019-01-26T21:00:24.003Z,6.80
2019-01-26T21:02:52.440Z,6.80
2019-01-26T21:05:20.898Z,6.90
2019-01-26T21:07:49.316Z,6.90
2019-01-26T21:10:23.483Z,6.80
2019-01-26T21:12:51.919Z,6.80
2019-01-26T21:15:20.325Z,6.90
2019-01-26T21:17:48.877Z,6.90
2019-01-26T21:20:24.966Z,6.90
2019-01-26T21:22:53.465Z,6.90
2019-01-26T21:25:22.011Z,6.90
2019-01-26T21:27:50.415Z,6.80
2019-01-26T21:30:24.007Z,6.90
2019-01-26T21:32:52.445Z,6.90
2019-01-26T21:35:21.244Z,6.90
2019-01-26T21:37:49.825Z,6.90
2019-01-26T21:40:21.025Z,6.90
2019-01-26T21:42:50.471Z,7.00
2019-01-26T21:45:19.024Z,6.90
2019-01-26T21:47:47.432Z,7.00
2019-01-26T21:50:19.028Z,7.00
2019-01-26T21:52:47.438Z,7.00
2019-01-26T21:55:15.839Z,7.00
2019-01-26T21:57:44.252Z,7.00
2019-01-26T22:00:15.463Z,7.00
2019-01-26T22:02:43.883Z,6.90
2019-01-26T22:05:13.485Z,6.90
2019-01-26T22:07:42.267Z,6.90
2019-01-26T22:10:13.695Z,7.00
2019-01-26T22:12:42.149Z,7.10
2019-01-26T22:15:15.863Z,7.10
2019-01-26T22:17:44.303Z,7.10
2019-01-26T22:20:15.754Z,7.00
2019-01-26T22:22:44.159Z,7.10
2019-01-26T22:25:14.096Z,7.10
2019-01-26T22:27:42.537Z,7.10
2019-01-26T22:30:22.711Z,7.00
2019-01-26T22:32:51.377Z,7.10
2019-01-26T22:35:19.854Z,7.10
2019-01-26T22:37:48.249Z,7.00
2019-01-26T22:40:22.024Z,7.00
2019-01-26T22:42:50.599Z,6.90
2019-01-26T22:45:19.128Z,6.90
2019-01-26T22:47:47.547Z,6.90
2019-01-26T22:50:18.777Z,7.00
2019-01-26T22:52:47.688Z,7.00
2019-01-26T22:55:18.531Z,7.00
2019-01-26T22:57:47.292Z,7.00
2019-01-26T23:00:26.228Z,7.00
2019-01-26T23:02:54.647Z,7.10
2019-01-26T23:05:42.624Z,7.10
2019-01-26T23:08:12.227Z,7.10
2019-01-26T23:10:49.559Z,7.00
2019-01-26T23:13:21.928Z,7.10
2019-01-26T23:16:09.902Z,7.20
2019-01-26T23:18:56.261Z,7.10
2019-01-26T23:21:27.729Z,7.20
2019-01-26T23:24:29.876Z,7.20
2019-01-26T23:27:04.112Z,7.30
2019-01-26T23:29:47.507Z,7.30
2019-01-26T23:32:15.916Z,7.40
2019-01-26T23:34:44.353Z,7.40
2019-01-26T23:37:12.791Z,7.50
2019-01-26T23:39:41.209Z,7.40
2019-01-26T23:42:09.607Z,7.50
2019-01-26T23:44:38.016Z,7.40
2019-01-26T23:47:06.430Z,7.40
2019-01-26T23:49:34.869Z,7.40
2019-01-26T23:52:03.271Z,7.50
2019-01-26T23:54:31.671Z,7.50
2019-01-26T23:57:00.111Z,7.50
2019-01-26T23:59:28.519Z,7.40
